THY5182 LTDB-OEMA
Flight info
| Callsign | THY5182 |
|---|---|
| Flight time | N/A |
| Altitude | 36000 |
| Route | YAPZU1J/21L YAPZU DCT VESAR DCT LCA DCT LAKTO DCT MELDO/N0454F370 A16 CVO L315 HGD M872 BOVET |
| Aircraft | A320/M-SDE3FGHIRWY/LB1 |
Departure
| Time | 2026-05-09 15:39 |
|---|---|
| Airport | Çukurova International Airport (LTDB) |
Arrival
| Time | N/A |
|---|---|
| Airport | Prince Mohammad Bin Abdulaziz Airport (OEMA) |
| Time | Latitude | Longitude | Altitude | Speed | Heading |
|---|---|---|---|---|---|
| 2026-05-09 15:23 | 36.90025 | 35.06853 | 47 ft | 0 kts | 302° |
| 2026-05-09 15:30 | 36.90021 | 35.06861 | 43 ft | 3 kts | 302° |
| 2026-05-09 15:30 | 36.90015 | 35.06874 | 46 ft | 3 kts | 302° |
| 2026-05-09 15:30 | 36.90006 | 35.06892 | 44 ft | 3 kts | 302° |
| 2026-05-09 15:30 | 36.89994 | 35.06916 | 47 ft | 2 kts | 313° |
| 2026-05-09 15:31 | 36.89986 | 35.06926 | 43 ft | 2 kts | 327° |
| 2026-05-09 15:31 | 36.89971 | 35.06936 | 43 ft | 2 kts | 338° |
| 2026-05-09 15:31 | 36.89955 | 35.06944 | 42 ft | 2 kts | 338° |
| 2026-05-09 15:31 | 36.89939 | 35.06950 | 46 ft | 2 kts | 349° |
| 2026-05-09 15:32 | 36.89925 | 35.06952 | 48 ft | 0 kts | 17° |
| 2026-05-09 15:32 | 36.89930 | 35.06954 | 48 ft | 1 kts | 17° |
| 2026-05-09 15:32 | 36.89944 | 35.06960 | 45 ft | 3 kts | 17° |
| 2026-05-09 15:32 | 36.89948 | 35.06961 | 45 ft | 0 kts | 17° |
| 2026-05-09 15:33 | 36.89949 | 35.06961 | 46 ft | 1 kts | 17° |
| 2026-05-09 15:33 | 36.89962 | 35.06969 | 47 ft | 3 kts | 25° |
| 2026-05-09 15:34 | 36.89983 | 35.06991 | 47 ft | 5 kts | 38° |
| 2026-05-09 15:34 | 36.90017 | 35.07024 | 44 ft | 7 kts | 38° |
| 2026-05-09 15:34 | 36.90061 | 35.07065 | 47 ft | 9 kts | 36° |
| 2026-05-09 15:34 | 36.90117 | 35.07115 | 47 ft | 11 kts | 36° |
| 2026-05-09 15:35 | 36.90186 | 35.07165 | 47 ft | 12 kts | 29° |
| 2026-05-09 15:35 | 36.90260 | 35.07222 | 47 ft | 12 kts | 42° |
| 2026-05-09 15:35 | 36.90248 | 35.07311 | 45 ft | 11 kts | 124° |
| 2026-05-09 15:35 | 36.90200 | 35.07399 | 47 ft | 13 kts | 122° |
| 2026-05-09 15:36 | 36.90150 | 35.07502 | 45 ft | 15 kts | 121° |
| 2026-05-09 15:36 | 36.90178 | 35.07609 | 48 ft | 15 kts | 38° |
| 2026-05-09 15:36 | 36.90266 | 35.07684 | 47 ft | 16 kts | 29° |
| 2026-05-09 15:36 | 36.90369 | 35.07760 | 46 ft | 18 kts | 30° |
| 2026-05-09 15:37 | 36.90482 | 35.07845 | 48 ft | 20 kts | 31° |
| 2026-05-09 15:37 | 36.90582 | 35.07956 | 47 ft | 16 kts | 78° |
| 2026-05-09 15:37 | 36.90545 | 35.08089 | 47 ft | 17 kts | 121° |
| 2026-05-09 15:37 | 36.90451 | 35.08110 | 48 ft | 12 kts | 205° |
| 2026-05-09 15:38 | 36.90390 | 35.08067 | 46 ft | 10 kts | 213° |
| 2026-05-09 15:38 | 36.90255 | 35.07965 | 47 ft | 51 kts | 211° |
| 2026-05-09 15:38 | 36.89766 | 35.07597 | 47 ft | 110 kts | 211° |
| 2026-05-09 15:38 | 36.88983 | 35.06997 | 50 ft | 152 kts | 212° |
| 2026-05-09 15:39 | 36.88113 | 35.06142 | 423 ft | 161 kts | 228° |
| 2026-05-09 15:39 | 36.87282 | 35.05257 | 1212 ft | 154 kts | 209° |
| 2026-05-09 15:39 | 36.86365 | 35.04580 | 1757 ft | 154 kts | 213° |
| 2026-05-09 15:39 | 36.85426 | 35.03884 | 2158 ft | 163 kts | 216° |
| 2026-05-09 15:40 | 36.84508 | 35.03056 | 2681 ft | 164 kts | 212° |
| 2026-05-09 15:40 | 36.83467 | 35.02316 | 2963 ft | 183 kts | 208° |
| 2026-05-09 15:40 | 36.82293 | 35.01543 | 3178 ft | 205 kts | 208° |
| 2026-05-09 15:40 | 36.81110 | 35.00397 | 3418 ft | 228 kts | 230° |
| 2026-05-09 15:41 | 36.80395 | 34.98524 | 3706 ft | 255 kts | 257° |
| 2026-05-09 15:41 | 36.80033 | 34.96285 | 4299 ft | 269 kts | 259° |
| 2026-05-09 15:41 | 36.79694 | 34.93962 | 5119 ft | 275 kts | 260° |
| 2026-05-09 15:41 | 36.79362 | 34.91624 | 5951 ft | 279 kts | 260° |
| 2026-05-09 15:42 | 36.79025 | 34.89227 | 6805 ft | 282 kts | 261° |
| 2026-05-09 15:42 | 36.78683 | 34.86812 | 7663 ft | 283 kts | 261° |
| 2026-05-09 15:42 | 36.78337 | 34.84394 | 8539 ft | 284 kts | 261° |
| 2026-05-09 15:42 | 36.77985 | 34.81967 | 9419 ft | 285 kts | 262° |
| 2026-05-09 15:43 | 36.77629 | 34.79534 | 10235 ft | 286 kts | 261° |
| 2026-05-09 15:43 | 36.77267 | 34.77072 | 10847 ft | 296 kts | 261° |
| 2026-05-09 15:43 | 36.76884 | 34.74450 | 11034 ft | 319 kts | 261° |